Terminal Aerodrome Forecast
Issued by NWS

Home | Current Version | Previous Version | Text Only | Print | Product List | Glossary On
Versions: 1 2 3 4 5 6 7 8 9 10 11 12 13
846
FTUS42 KMLB 302339
TAFTIX
TAF
KTIX 302339Z 3100/3124 VRB03KT P6SM VCSH SCT070 BKN120
     FM310400 21004KT P6SM FEW030 BKN120
     FM311100 22003KT P6SM FEW030
     FM311400 27005KT P6SM SCT035
     FM312000 12007KT P6SM VCTS SCT035CB BKN250
      AMD NOT SKED 3101/3111=

USA.gov is the U.S. government's official web portal to all federal, state and local government web resources and services.